Aérodrome :
LOGIN :

S'inscrire | Disclaimer

   EN    FR    IT 

 










Légende :    VFR   VFR Marginal   IFR   IFR Intensif   IFR Très Intensif
Visi : 
Plafond : 
>= 8 km
>= 3000ft
5 à 8 km
1000 à 3000 ft
1500m à 5 km
500 à 1000 ft
800 à 1500m
200 à 500 ft
< 800m
< 200 ft
Symboles :   Orages  Brouillard  Fortes neiges  Fortes précipitations  Vent > 20 kt
SIGMETs :   Divers  Orages  Givrage  Turbulence  Onde Orograph.  Cendres Volcan.







- Altitude de l'aérodrome : 17 ft
- Code IATA : GRQ


EHGG - Groningen Eelde

DERNIER METAR :
  • 231425Z AUTO 27009KT 240V310 9999 FEW024 13/12 Q1016 TEMPO BKN012

METARs EXPIRÉS :
  • 231355Z AUTO 27010KT 240V320 9999 SCT007 BKN009 14/13 Q1015 TEMPO BKN012
  • 231325Z AUTO 27011KT 220V310 9999 SCT008 BKN010 BKN033 14/13 Q1015 TEMPO BKN012
  • 231255Z AUTO 27010KT 240V310 9999 FEW009 13/12 Q1014 TEMPO BKN012
  • 231225Z AUTO 28010G20KT 230V320 9999 FEW008 SCT010 BKN013 13/13 Q1014 REDZ TEMPO 6000 -RADZ BKN008

TAF TAF EHGG
Valide du 23 à 12h jusqu'au 24 à 18h UTC


231120Z 2312/2418 29012KT 9999 BKN020
PROB30
TEMPO 2312/2314 4000 DZRA -SHRA BKN008 SCT020TCU
BECMG 2314/2317 26007KT
BECMG 2322/2401 4000 BR DZ BKN005
BECMG 2400/2403 2000 BKN002
PROB30
TEMPO 2401/2412 4000 BKN005
BECMG 2407/2410 22010KT BKN004
BECMG 2412/2415 25012KT 6000 -RA BKN006
Pas de NOTAMs connus pour ce terrain.



MET'MAP, la Météo Aéronautique d'un coup d'oeil ! - Copyright ORBIFLY Décembre 2007 - Disclaimer

ORBIFLY MET'MAP TEAM :

Programmation & Développement : Alexandra Zaïnal
Conception & Développement : Baudouin d'Aumeries
Co-Programmation & Développement : Marc-Olivier Méhu
Soutien technique & logistique : Manuel Goepfert

Contact : metmap@orbifly.com




SOURCES & CREDITS :

   NOAA